createdAt,value
2022-11-08T00:02:20.650Z,100994.59
2022-11-08T00:04:47.215Z,100992.94
2022-11-08T00:07:32.243Z,100999.00
2022-11-08T00:10:17.217Z,100992.09
2022-11-08T00:13:02.355Z,100989.63
2022-11-08T00:15:29.518Z,100986.06
2022-11-08T00:17:56.709Z,100986.06
2022-11-08T00:20:23.275Z,100996.50
2022-11-08T00:22:49.748Z,100987.94
2022-11-08T00:25:16.352Z,100987.13
2022-11-08T00:27:42.792Z,100985.34
2022-11-08T00:30:09.798Z,100984.50
2022-11-08T00:32:36.218Z,100982.72
2022-11-08T00:35:02.666Z,100983.69
2022-11-08T00:37:29.068Z,100983.69
2022-11-08T00:39:55.538Z,100980.22
2022-11-08T00:42:22.037Z,100976.81
2022-11-08T00:44:48.444Z,100981.19
2022-11-08T00:47:14.940Z,100976.81
2022-11-08T00:49:41.518Z,100973.34
2022-11-08T00:52:08.005Z,100976.06
2022-11-08T00:54:34.632Z,100975.94
2022-11-08T00:57:01.102Z,100966.47
2022-11-08T00:59:27.560Z,100976.91
2022-11-08T01:01:54.118Z,100980.47
2022-11-08T01:04:20.690Z,100979.53
2022-11-08T01:06:47.446Z,100970.03
2022-11-08T01:09:14.232Z,100982.16
2022-11-08T01:11:45.139Z,100975.25
2022-11-08T01:14:12.052Z,100977.88
2022-11-08T01:16:39.695Z,100977.03
2022-11-08T01:19:06.167Z,100967.41
2022-11-08T01:21:32.560Z,100966.59
2022-11-08T01:23:58.914Z,100970.97
2022-11-08T01:26:27.438Z,100964.09
2022-11-08T01:28:54.589Z,100966.72
2022-11-08T01:31:23.600Z,100964.09
2022-11-08T01:33:51.802Z,100959.69
2022-11-08T01:36:21.926Z,100958.03
2022-11-08T01:38:48.299Z,100945.94
2022-11-08T01:41:16.843Z,100954.59
2022-11-08T01:43:47.769Z,100942.47
2022-11-08T01:46:33.549Z,100934.63
2022-11-08T01:49:10.736Z,100931.22
2022-11-08T01:51:54.970Z,100925.16
2022-11-08T01:54:31.549Z,100925.16
2022-11-08T01:57:01.902Z,100913.88
2022-11-08T01:59:29.363Z,100913.03
2022-11-08T02:01:56.797Z,100912.19
2022-11-08T02:04:23.326Z,100913.97
2022-11-08T02:06:50.637Z,100909.56
2022-11-08T02:09:18.643Z,100907.09
2022-11-08T02:11:47.470Z,100904.47
2022-11-08T02:14:13.945Z,100900.91
2022-11-08T02:16:40.255Z,100903.66
2022-11-08T02:19:12.014Z,100887.16
2022-11-08T02:21:46.839Z,100881.09
2022-11-08T02:24:14.118Z,100887.16
2022-11-08T02:26:40.782Z,100882.06
2022-11-08T02:29:27.660Z,100880.28
2022-11-08T02:31:55.388Z,100880.41
2022-11-08T02:34:25.765Z,100881.22
2022-11-08T02:36:52.095Z,100880.28
2022-11-08T02:39:18.478Z,100876.00
2022-11-08T02:41:44.777Z,100871.63
2022-11-08T02:44:11.114Z,100870.88
2022-11-08T02:46:37.493Z,100864.84
2022-11-08T02:49:03.923Z,100862.25
2022-11-08T02:51:30.620Z,100864.84
2022-11-08T02:53:56.938Z,100856.19
2022-11-08T02:56:23.348Z,100851.78
2022-11-08T02:58:49.667Z,100852.59
2022-11-08T03:01:16.010Z,100845.84
2022-11-08T03:03:42.347Z,100844.06
2022-11-08T03:06:08.669Z,100845.03
2022-11-08T03:08:34.977Z,100840.63
2022-11-08T03:11:01.297Z,100838.97
2022-11-08T03:13:27.722Z,100833.75
2022-11-08T03:15:54.078Z,100832.09
2022-11-08T03:18:20.618Z,100837.31
2022-11-08T03:20:47.163Z,100821.63
2022-11-08T03:23:13.499Z,100825.19
2022-11-08T03:25:39.817Z,100815.59
2022-11-08T03:28:08.179Z,100817.34
2022-11-08T03:30:36.147Z,100814.88
2022-11-08T03:33:02.496Z,100807.88
2022-11-08T03:35:28.889Z,100800.06
2022-11-08T03:37:56.643Z,100797.44
2022-11-08T03:40:24.044Z,100790.56
2022-11-08T03:42:50.591Z,100780.09
2022-11-08T03:45:17.195Z,100773.19
2022-11-08T03:47:45.761Z,100770.56
2022-11-08T03:50:13.835Z,100762.72
2022-11-08T03:52:45.531Z,100750.66
2022-11-08T03:55:12.407Z,100744.59
2022-11-08T03:57:42.113Z,100748.03
2022-11-08T04:00:10.335Z,100754.22
2022-11-08T04:02:36.761Z,100752.41
2022-11-08T04:05:03.644Z,100741.16
2022-11-08T04:07:29.962Z,100740.31
2022-11-08T04:09:56.469Z,100721.22
2022-11-08T04:12:41.695Z,100717.66
2022-11-08T04:15:16.817Z,100716.94
2022-11-08T04:18:07.332Z,100719.53
2022-11-08T04:20:52.446Z,100709.22
2022-11-08T04:23:18.775Z,100713.50
2022-11-08T04:25:45.426Z,100711.84
2022-11-08T04:28:11.804Z,100708.41
2022-11-08T04:30:38.259Z,100708.53
2022-11-08T04:33:05.303Z,100709.34
2022-11-08T04:35:32.021Z,100705.91
2022-11-08T04:38:00.113Z,100711.13
2022-11-08T04:40:26.990Z,100710.31
2022-11-08T04:42:53.361Z,100709.47
2022-11-08T04:45:19.690Z,100699.03
2022-11-08T04:47:48.454Z,100702.63
2022-11-08T04:50:15.618Z,100701.75
2022-11-08T04:52:42.322Z,100705.22
2022-11-08T04:55:09.337Z,100689.56
2022-11-08T04:57:35.767Z,100691.31
2022-11-08T05:00:02.108Z,100683.63
2022-11-08T05:02:28.547Z,100672.34
2022-11-08T05:04:54.959Z,100660.94
2022-11-08T05:07:21.346Z,100661.91
2022-11-08T05:09:47.718Z,100666.16
2022-11-08T05:12:14.034Z,100659.28
2022-11-08T05:14:40.713Z,100649.81
2022-11-08T05:17:07.229Z,100655.03
2022-11-08T05:19:52.212Z,100649.81
2022-11-08T05:22:37.878Z,100645.41
2022-11-08T05:25:04.498Z,100646.38
2022-11-08T05:27:30.843Z,100639.47
2022-11-08T05:29:57.188Z,100637.81
2022-11-08T05:32:23.506Z,100638.66
2022-11-08T05:34:49.821Z,100633.44
2022-11-08T05:37:16.232Z,100631.78
2022-11-08T05:39:42.543Z,100621.34
2022-11-08T05:42:09.111Z,100628.34
2022-11-08T05:44:35.471Z,100630.13
2022-11-08T05:47:01.795Z,100629.31
2022-11-08T05:49:28.110Z,100628.47
2022-11-08T05:51:54.755Z,100624.19
2022-11-08T05:54:21.071Z,100621.59
2022-11-08T05:56:47.419Z,100617.19
2022-11-08T05:59:13.725Z,100616.38
2022-11-08T06:01:40.147Z,100620.75
2022-11-08T06:04:06.525Z,100615.53
2022-11-08T06:06:33.032Z,100606.88
2022-11-08T06:08:59.367Z,100608.53
2022-11-08T06:11:27.162Z,100611.16
2022-11-08T06:13:54.926Z,100611.16
2022-11-08T06:16:22.894Z,100617.19
2022-11-08T06:18:49.386Z,100607.69
2022-11-08T06:21:18.319Z,100621.59
2022-11-08T06:23:45.383Z,100619.94
2022-11-08T06:26:12.075Z,100613.03
2022-11-08T06:28:38.389Z,100611.16
2022-11-08T06:31:05.475Z,100607.69
2022-11-08T06:33:32.599Z,100607.81
2022-11-08T06:35:59.123Z,100606.19
2022-11-08T06:38:25.748Z,100611.41
2022-11-08T06:40:52.092Z,100607.81
2022-11-08T06:43:20.271Z,100607.94
2022-11-08T06:45:47.497Z,100606.44
2022-11-08T06:48:14.352Z,100601.22
2022-11-08T06:50:41.798Z,100595.03
2022-11-08T06:53:10.966Z,100600.25
2022-11-08T06:55:37.431Z,100595.88
2022-11-08T06:58:04.208Z,100590.66
2022-11-08T07:00:31.554Z,100595.88
2022-11-08T07:03:02.805Z,100596.00
2022-11-08T07:05:30.954Z,100602.84
2022-11-08T07:07:58.319Z,100608.19
2022-11-08T07:10:27.245Z,100616.88
2022-11-08T07:13:05.040Z,100615.91
2022-11-08T07:15:32.750Z,100616.03
2022-11-08T07:18:01.266Z,100616.88
2022-11-08T07:20:27.627Z,100611.66
2022-11-08T07:22:55.211Z,100606.44
2022-11-08T07:25:21.771Z,100600.25
2022-11-08T07:27:48.184Z,100592.41
2022-11-08T07:30:14.531Z,100592.41
2022-11-08T07:32:40.882Z,100589.81
2022-11-08T07:35:07.579Z,100588.72
2022-11-08T07:37:33.923Z,100585.31
2022-11-08T07:40:00.273Z,100580.91
2022-11-08T07:42:38.361Z,100580.91
2022-11-08T07:45:13.245Z,100566.44
2022-11-08T07:47:39.758Z,100572.63
2022-11-08T07:50:07.163Z,100558.69
2022-11-08T07:52:33.538Z,100564.59
2022-11-08T07:54:59.857Z,100573.84
2022-11-08T07:57:26.192Z,100572.63
2022-11-08T07:59:52.499Z,100568.38
2022-11-08T08:02:19.249Z,100567.41
2022-11-08T08:04:45.649Z,100577.72
2022-11-08T08:07:13.015Z,100574.13
2022-11-08T08:09:39.331Z,100573.19
2022-11-08T08:12:05.860Z,100584.19
2022-11-08T08:14:32.163Z,100590.25
2022-11-08T08:16:58.470Z,100586.59
2022-11-08T08:19:24.797Z,100588.22
2022-11-08T08:21:51.106Z,100578.63
2022-11-08T08:24:17.474Z,100591.53
2022-11-08T08:26:43.983Z,100591.53
2022-11-08T08:29:10.282Z,100594.97
2022-11-08T08:31:36.592Z,100581.91
2022-11-08T08:34:03.038Z,100582.72
2022-11-08T08:36:29.364Z,100589.63
2022-11-08T08:38:55.778Z,100585.34
2022-11-08T08:41:22.078Z,100589.63
2022-11-08T08:43:48.504Z,100592.22
2022-11-08T08:46:14.873Z,100602.69
2022-11-08T08:48:41.258Z,100604.34
2022-11-08T08:51:07.572Z,100598.28
2022-11-08T08:53:33.878Z,100596.50
2022-11-08T08:56:02.231Z,100587.72
2022-11-08T08:58:28.534Z,100577.28
2022-11-08T09:03:46.273Z,100585.13
2022-11-08T09:06:14.371Z,100585.13
2022-11-08T09:08:40.667Z,100567.66
2022-11-08T09:11:06.977Z,100576.44
2022-11-08T09:13:33.309Z,100568.59
2022-11-08T09:16:02.598Z,100564.31
2022-11-08T09:18:30.006Z,100569.56
2022-11-08T09:20:57.883Z,100565.19
2022-11-08T09:23:24.238Z,100559.00
2022-11-08T09:25:56.629Z,100563.25
2022-11-08T09:28:26.959Z,100556.13
2022-11-08T09:30:59.754Z,100551.72
2022-11-08T09:35:53.882Z,100551.59
2022-11-08T09:38:20.761Z,100549.69
2022-11-08T09:41:13.129Z,100547.91
2022-11-08T09:44:24.481Z,100569.63
2022-11-08T09:46:53.778Z,100563.44
2022-11-08T09:49:28.227Z,100579.03
2022-11-08T09:51:54.605Z,100586.72
2022-11-08T09:54:26.561Z,100588.66
2022-11-08T09:56:55.478Z,100581.63
2022-11-08T09:59:32.248Z,100564.25
2022-11-08T10:01:58.726Z,100566.06
2022-11-08T10:04:28.766Z,100563.44
2022-11-08T10:07:13.404Z,100552.91
2022-11-08T10:10:07.398Z,100545.75
2022-11-08T10:12:47.394Z,100548.50
2022-11-08T10:15:37.632Z,100552.78
2022-11-08T10:18:24.905Z,100541.50
2022-11-08T10:21:22.553Z,100545.97
2022-11-08T10:24:04.152Z,100547.06
2022-11-08T10:26:42.584Z,100548.03
2022-11-08T10:29:13.636Z,100563.72
2022-11-08T10:31:42.860Z,100557.63
2022-11-08T10:34:23.569Z,100564.78
2022-11-08T10:36:58.855Z,100555.28
2022-11-08T10:39:28.100Z,100552.53
2022-11-08T10:42:05.178Z,100558.47
2022-11-08T10:44:33.255Z,100542.81
2022-11-08T10:47:03.109Z,100562.72
2022-11-08T10:49:31.363Z,100560.03
2022-11-08T10:52:12.823Z,100560.84
2022-11-08T10:54:46.281Z,100565.16
2022-11-08T10:57:15.886Z,100547.69
2022-11-08T10:59:43.434Z,100554.56
2022-11-08T11:02:34.459Z,100544.13
2022-11-08T11:05:15.892Z,100542.19
2022-11-08T11:08:02.886Z,100547.41
2022-11-08T11:10:30.854Z,100549.09
2022-11-08T11:13:09.822Z,100531.75
2022-11-08T11:15:46.198Z,100534.22
2022-11-08T11:18:29.201Z,100538.63
2022-11-08T11:21:07.735Z,100529.81
2022-11-08T11:23:43.300Z,100541.13
2022-11-08T11:26:35.835Z,100535.88
2022-11-08T11:29:04.936Z,100524.50
2022-11-08T11:31:42.671Z,100535.75
2022-11-08T11:34:17.770Z,100530.41
2022-11-08T11:37:12.347Z,100528.59
2022-11-08T11:39:51.314Z,100527.66
2022-11-08T11:42:45.271Z,100529.31
2022-11-08T11:45:23.777Z,100528.34
2022-11-08T11:47:54.176Z,100518.63
2022-11-08T11:50:23.234Z,100529.75
2022-11-08T11:52:49.734Z,100536.63
2022-11-08T11:55:17.279Z,100527.13
2022-11-08T11:58:00.929Z,100514.78
2022-11-08T12:00:27.281Z,100510.38
2022-11-08T12:02:59.842Z,100518.75
2022-11-08T12:05:38.289Z,100512.72
2022-11-08T12:08:35.564Z,100516.88
2022-11-08T12:11:19.834Z,100509.72
2022-11-08T12:14:03.937Z,100507.09
2022-11-08T12:16:56.512Z,100502.31
2022-11-08T12:19:44.180Z,100510.16
2022-11-08T12:22:39.890Z,100502.19
2022-11-08T12:25:35.324Z,100510.84
2022-11-08T12:28:24.210Z,100509.75
2022-11-08T12:31:00.107Z,100501.78
2022-11-08T12:33:50.148Z,100504.97
2022-11-08T12:36:30.710Z,100500.56
2022-11-08T12:39:07.785Z,100501.50
2022-11-08T12:41:45.855Z,100508.53
2022-11-08T12:44:39.935Z,100515.41
2022-11-08T12:47:24.525Z,100507.69
2022-11-08T12:50:11.691Z,100506.72
2022-11-08T12:52:46.859Z,100500.56
2022-11-08T12:55:38.646Z,100501.38
2022-11-08T12:58:35.924Z,100508.41
2022-11-08T13:01:06.567Z,100507.44
2022-11-08T13:03:42.077Z,100504.13
2022-11-08T13:06:18.295Z,100493.66
2022-11-08T13:08:59.216Z,100494.63
2022-11-08T13:12:01.925Z,100493.00
2022-11-08T13:14:29.014Z,100499.97
2022-11-08T13:17:24.813Z,100495.59
2022-11-08T13:19:51.058Z,100495.59
2022-11-08T13:22:29.651Z,100499.84
2022-11-08T13:25:16.642Z,100490.25
2022-11-08T13:27:44.698Z,100502.47
2022-11-08T13:30:10.935Z,100499.84
2022-11-08T13:32:42.950Z,100498.91
2022-11-08T13:35:21.527Z,100497.22
2022-11-08T13:38:27.509Z,100490.38
2022-11-08T13:41:09.015Z,100494.75
2022-11-08T13:43:36.161Z,100489.53
2022-11-08T13:46:30.181Z,100493.94
2022-11-08T13:49:04.999Z,100493.13
2022-11-08T13:51:35.546Z,100484.72
2022-11-08T13:54:02.769Z,100493.63
2022-11-08T13:56:52.248Z,100500.66
2022-11-08T13:59:30.861Z,100500.66
2022-11-08T14:02:04.368Z,100500.66
2022-11-08T14:04:38.369Z,100498.03
2022-11-08T14:07:11.503Z,100497.78
2022-11-08T14:10:07.015Z,100495.88
2022-11-08T14:13:03.602Z,100503.56
2022-11-08T14:15:36.014Z,100499.16
2022-11-08T14:18:16.582Z,100498.34
2022-11-08T14:20:46.354Z,100496.81
2022-11-08T14:23:19.017Z,100494.06
2022-11-08T14:25:57.957Z,100495.72
2022-11-08T14:28:33.102Z,100494.75
2022-11-08T14:31:02.192Z,100484.44
2022-11-08T14:33:33.464Z,100474.97
2022-11-08T14:36:07.191Z,100471.50
2022-11-08T14:38:37.572Z,100483.63
2022-11-08T14:41:06.314Z,100478.41
2022-11-08T14:43:51.857Z,100472.34
2022-11-08T14:46:34.322Z,100480.19
2022-11-08T14:49:21.234Z,100478.53
2022-11-08T14:51:48.579Z,100476.88
2022-11-08T14:54:20.231Z,100486.50
2022-11-08T14:56:46.787Z,100475.25
2022-11-08T14:59:13.842Z,100474.38
2022-11-08T15:01:44.186Z,100473.56
2022-11-08T15:04:21.023Z,100482.22
2022-11-08T15:06:53.419Z,100475.25
2022-11-08T15:09:26.790Z,100468.34
2022-11-08T15:11:56.715Z,100475.25
2022-11-08T15:14:25.701Z,100476.88
2022-11-08T15:16:57.463Z,100475.25
2022-11-08T15:19:46.250Z,100476.06
2022-11-08T15:22:33.394Z,100486.50
2022-11-08T15:25:24.698Z,100479.47
2022-11-08T15:27:56.839Z,100477.84
2022-11-08T15:30:36.387Z,100475.25
2022-11-08T15:33:03.301Z,100468.22
2022-11-08T15:35:34.016Z,100461.31
2022-11-08T15:38:27.083Z,100464.06
2022-11-08T15:40:55.620Z,100462.28
2022-11-08T15:43:31.061Z,100455.28
2022-11-08T15:46:02.284Z,100458.84
2022-11-08T15:48:29.373Z,100465.88
2022-11-08T15:50:59.285Z,100462.41
2022-11-08T15:53:26.981Z,100468.47
2022-11-08T15:56:02.385Z,100466.69
2022-11-08T15:58:30.587Z,100460.66
2022-11-08T16:00:58.559Z,100453.75
2022-11-08T16:03:25.090Z,100454.72
2022-11-08T16:05:51.484Z,100454.84
2022-11-08T16:08:20.863Z,100451.56
2022-11-08T16:10:50.808Z,100455.13
2022-11-08T16:13:20.462Z,100450.84
2022-11-08T16:15:47.963Z,100447.28
2022-11-08T16:18:15.595Z,100444.66
2022-11-08T16:20:42.242Z,100450.75
2022-11-08T16:23:10.827Z,100450.59
2022-11-08T16:25:40.787Z,100458.44
2022-11-08T16:28:16.594Z,100471.63
2022-11-08T16:30:46.704Z,100478.50
2022-11-08T16:33:26.644Z,100464.75
2022-11-08T16:36:12.178Z,100468.31
2022-11-08T16:38:38.534Z,100459.78
2022-11-08T16:41:05.821Z,100457.31
2022-11-08T16:43:32.433Z,100463.50
2022-11-08T16:46:06.265Z,100459.22
2022-11-08T16:48:34.644Z,100453.31
2022-11-08T16:51:04.010Z,100452.59
2022-11-08T16:53:30.822Z,100457.81
2022-11-08T16:55:57.811Z,100461.56
2022-11-08T16:58:25.290Z,100458.09
2022-11-08T17:00:52.287Z,100454.53
2022-11-08T17:03:29.536Z,100450.13
2022-11-08T17:05:56.824Z,100452.59
2022-11-08T17:08:24.892Z,100452.47
2022-11-08T17:10:52.175Z,100441.34
2022-11-08T17:13:20.283Z,100445.59
2022-11-08T17:15:47.682Z,100442.16
2022-11-08T17:18:17.116Z,100443.00
2022-11-08T17:20:44.055Z,100450.00
2022-11-08T17:23:11.366Z,100443.00
2022-11-08T17:25:44.052Z,100443.00
2022-11-08T17:28:11.842Z,100430.88
2022-11-08T17:30:43.864Z,100434.31
2022-11-08T17:33:11.760Z,100443.81
2022-11-08T17:35:42.594Z,100431.56
2022-11-08T17:38:10.492Z,100445.47
2022-11-08T17:40:36.843Z,100455.06
2022-11-08T17:43:03.134Z,100447.38
2022-11-08T17:45:30.355Z,100443.69
2022-11-08T17:47:56.654Z,100446.28
2022-11-08T17:50:22.986Z,100446.16
2022-11-08T17:52:52.979Z,100445.22
2022-11-08T17:55:19.331Z,100455.53
2022-11-08T17:57:45.633Z,100456.34
2022-11-08T18:00:12.579Z,100456.34
2022-11-08T18:02:38.929Z,100459.66
2022-11-08T18:05:05.626Z,100469.13
2022-11-08T18:07:31.987Z,100466.50
2022-11-08T18:09:58.355Z,100457.72
2022-11-08T18:12:24.718Z,100465.44
2022-11-08T18:14:51.060Z,100460.22
2022-11-08T18:17:17.427Z,100467.91
2022-11-08T18:19:45.270Z,100466.97
2022-11-08T18:22:11.610Z,100465.16
2022-11-08T18:24:37.931Z,100462.56
2022-11-08T18:27:04.308Z,100469.44
2022-11-08T18:29:30.626Z,100464.22
2022-11-08T18:31:56.948Z,100472.06
2022-11-08T18:34:23.299Z,100467.50
2022-11-08T18:36:49.682Z,100462.28
2022-11-08T18:39:19.552Z,100456.94
2022-11-08T18:41:46.640Z,100464.78
2022-11-08T18:44:12.971Z,100462.19
2022-11-08T18:46:43.275Z,100460.38
2022-11-08T18:49:10.545Z,100449.78
2022-11-08T18:51:36.911Z,100461.06
2022-11-08T18:54:03.359Z,100462.84
2022-11-08T18:56:29.762Z,100463.66
2022-11-08T18:58:56.171Z,100465.34
2022-11-08T19:01:22.566Z,100467.81
2022-11-08T19:03:48.953Z,100467.00
2022-11-08T19:06:15.295Z,100467.81
2022-11-08T19:08:41.660Z,100468.63
2022-11-08T19:11:11.433Z,100470.41
2022-11-08T19:13:39.391Z,100472.09
2022-11-08T19:16:14.884Z,100466.00
2022-11-08T19:18:42.263Z,100469.47
2022-11-08T19:21:17.415Z,100463.16
2022-11-08T19:23:45.806Z,100470.16
2022-11-08T19:26:15.194Z,100462.19
2022-11-08T19:28:44.971Z,100464.66
2022-11-08T19:31:13.349Z,100468.78
2022-11-08T19:33:39.673Z,100465.38
2022-11-08T19:36:09.157Z,100460.13
2022-11-08T19:38:37.246Z,100459.16
2022-11-08T19:41:05.188Z,100466.19
2022-11-08T19:43:35.055Z,100461.78
2022-11-08T19:46:03.313Z,100456.53
2022-11-08T19:48:32.059Z,100460.81
2022-11-08T19:51:01.627Z,100454.78
2022-11-08T19:53:28.285Z,100456.28
2022-11-08T19:56:06.431Z,100452.97
2022-11-08T19:58:34.581Z,100448.56
2022-11-08T20:01:08.580Z,100455.59
2022-11-08T20:03:34.918Z,100455.72
2022-11-08T20:06:01.351Z,100460.00
2022-11-08T20:08:28.802Z,100459.16
2022-11-08T20:10:55.368Z,100467.69
2022-11-08T20:13:21.690Z,100473.88
2022-11-08T20:15:48.017Z,100475.53
2022-11-08T20:18:14.823Z,100481.59
2022-11-08T20:20:42.505Z,100473.06
2022-11-08T20:23:13.370Z,100476.63
2022-11-08T20:25:39.941Z,100473.06
2022-11-08T20:28:06.898Z,100475.53
2022-11-08T20:30:33.454Z,100482.41
2022-11-08T20:32:59.775Z,100487.53
2022-11-08T20:35:26.104Z,100486.41
2022-11-08T20:37:56.757Z,100502.94
2022-11-08T20:40:23.066Z,100493.56
2022-11-08T20:42:50.057Z,100494.25
2022-11-08T20:45:16.392Z,100496.84
2022-11-08T20:47:42.714Z,100496.03
2022-11-08T20:50:10.603Z,100494.50
2022-11-08T20:52:36.905Z,100491.91
2022-11-08T20:55:03.253Z,100495.09
2022-11-08T20:57:29.566Z,100499.47
2022-11-08T20:59:55.937Z,100500.31
2022-11-08T21:02:22.283Z,100491.50
2022-11-08T21:04:48.711Z,100509.66
2022-11-08T21:10:27.407Z,100507.88
2022-11-08T21:12:47.820Z,100509.78
2022-11-08T21:15:14.300Z,100509.94
2022-11-08T21:17:40.660Z,100501.41
2022-11-08T21:20:08.061Z,100510.91
2022-11-08T21:22:34.383Z,100504.03
2022-11-08T21:25:00.715Z,100499.59
2022-11-08T21:27:29.786Z,100510.06
2022-11-08T21:29:56.579Z,100500.69
2022-11-08T21:32:22.911Z,100504.28
2022-11-08T21:34:49.348Z,100503.44
2022-11-08T21:37:15.725Z,100502.63
2022-11-08T21:39:42.503Z,100493.13
2022-11-08T21:42:08.858Z,100494.94
2022-11-08T21:44:35.182Z,100502.91
2022-11-08T21:47:01.537Z,100510.75
2022-11-08T21:49:27.919Z,100510.88
2022-11-08T21:51:54.234Z,100512.66
2022-11-08T21:54:20.556Z,100515.28
2022-11-08T21:56:46.886Z,100520.66
2022-11-08T21:59:13.453Z,100519.66
2022-11-08T22:01:40.161Z,100515.41
2022-11-08T22:04:06.590Z,100517.19
2022-11-08T22:06:32.945Z,100518.13
2022-11-08T22:08:59.350Z,100515.66
2022-11-08T22:11:25.712Z,100527.91
2022-11-08T22:13:52.717Z,100522.69
2022-11-08T22:16:19.070Z,100521.88
2022-11-08T22:21:38.207Z,100525.44
2022-11-08T22:24:12.435Z,100521.16
2022-11-08T22:26:40.568Z,100517.72
2022-11-08T22:29:07.074Z,100515.09
2022-11-08T22:31:33.871Z,100509.06
2022-11-08T22:34:01.108Z,100512.50
2022-11-08T22:36:27.844Z,100510.03
2022-11-08T22:38:54.535Z,100523.91
2022-11-08T22:41:21.960Z,100518.69
2022-11-08T22:43:48.659Z,100523.91
2022-11-08T22:46:15.326Z,100516.19
2022-11-08T22:48:41.719Z,100523.22
2022-11-08T22:51:09.007Z,100521.56
2022-11-08T22:53:35.927Z,100526.78
2022-11-08T22:56:05.563Z,100526.78
2022-11-08T22:58:34.916Z,100524.31
2022-11-08T23:01:01.374Z,100530.34
2022-11-08T23:03:27.882Z,100528.56
2022-11-08T23:05:56.670Z,100520.88
2022-11-08T23:08:24.843Z,100525.13
2022-11-08T23:11:10.706Z,100523.47
2022-11-08T23:13:56.383Z,100520.88
2022-11-08T23:16:34.799Z,100514.94
2022-11-08T23:19:22.018Z,100518.41
2022-11-08T23:22:06.982Z,100511.38
2022-11-08T23:24:33.524Z,100507.09
2022-11-08T23:27:36.332Z,100511.50
2022-11-08T23:30:23.546Z,100521.97
2022-11-08T23:32:50.713Z,100525.50
2022-11-08T23:35:19.039Z,100520.28
2022-11-08T23:37:45.511Z,100519.47
2022-11-08T23:40:32.039Z,100509.16
2022-11-08T23:43:37.812Z,100513.44
2022-11-08T23:46:09.891Z,100504.75
2022-11-08T23:48:37.265Z,100510.81
2022-11-08T23:51:05.573Z,100517.81
2022-11-08T23:53:33.698Z,100520.44
2022-11-08T23:56:00.146Z,100511.78
2022-11-08T23:58:26.546Z,100517.00
